Time;durP1;ratioP1;P1;durP2;ratioP2;P2;SDS_P1;SDS_P2;PMS_P1;PMS_P2;Temp;Humidity;BMP_temperature;BMP_pressure;BME280_temperature;BME280_humidity;BME280_pressure;Samples;Min_cycle;Max_cycle;Signal;HPM_P1;HPM_P2
2023/10/11 04:32:32;;;;;;;0.10;0.10;;;16.30;85.10;;;;;;5018273;23;20049;-78
2023/10/11 04:35:00;;;;;;;0.00;0.00;;;16.20;85.10;;;;;;4885291;29;20041;-78
2023/10/11 04:37:33;;;;;;;0.00;0.00;;;16.20;85.20;;;;;;4887917;29;20040;-78
2023/10/11 04:40:22;;;;;;;;;;;16.10;85.20;;;;;;4886126;29;20486;-78
2023/10/11 04:42:45;;;;;;;0.00;0.00;;;16.10;85.30;;;;;;4902513;29;19908;-78
2023/10/11 04:45:21;;;;;;;0.10;0.10;;;16.00;85.50;;;;;;4902289;29;20030;-78
2023/10/11 04:47:50;;;;;;;0.10;0.10;;;16.00;85.30;;;;;;4887405;29;20028;-81
2023/10/11 04:50:16;;;;;;;0.10;0.10;;;16.00;85.50;;;;;;4902500;29;20449;-81
2023/10/11 04:52:48;;;;;;;0.03;0.03;;;15.90;85.70;;;;;;4902584;29;20039;-81
2023/10/11 04:55:15;;;;;;;0.10;0.10;;;16.00;85.80;;;;;;4902542;29;20029;-77
2023/10/11 04:58:04;;;;;;;0.10;0.10;;;16.00;85.70;;;;;;4902520;29;20032;-80
2023/10/11 05:00:31;;;;;;;0.08;0.08;;;16.00;85.60;;;;;;4894778;29;20090;-81
2023/10/11 05:03:02;;;;;;;0.00;0.00;;;16.00;85.50;;;;;;4880350;29;20040;-80
2023/10/11 05:05:28;;;;;;;0.00;0.00;;;15.90;85.30;;;;;;4884413;29;20028;-79
2023/10/11 05:08:04;;;;;;;0.08;0.08;;;15.90;85.60;;;;;;4902454;29;20032;-83
2023/10/11 05:10:32;;;;;;;0.00;0.00;;;15.90;85.70;;;;;;4885712;29;20092;-79
2023/10/11 05:13:05;;;;;;;0.10;0.10;;;16.00;85.40;;;;;;4902382;29;20048;-79
2023/10/11 05:15:42;;;;;;;0.05;0.05;;;16.00;85.60;;;;;;4885410;29;20020;-78
2023/10/11 05:18:09;;;;;;;0.10;0.10;;;16.10;85.30;;;;;;4886193;29;20036;-79
2023/10/11 05:23:13;;;;;;;0.00;0.00;;;16.00;85.30;;;;;;4902365;29;20116;-77
2023/10/11 05:25:52;;;;;;;0.00;0.00;;;16.10;85.20;;;;;;4902061;29;20028;-78
2023/10/11 05:31:01;;;;;;;0.00;0.00;;;16.20;84.90;;;;;;4899509;29;20051;-78
2023/10/11 05:36:14;;;;;;;0.00;0.00;;;16.00;85.00;;;;;;4902091;29;20108;-77
2023/10/11 05:52:25;;;;;;;0.00;0.00;;;15.90;84.60;;;;;;4885697;29;20429;-78
2023/10/11 05:54:52;;;;;;;0.00;0.00;;;15.80;84.30;;;;;;4883340;29;20013;-77
2023/10/11 05:57:22;;;;;;;0.10;0.10;;;15.70;85.00;;;;;;4885432;29;20060;-78
2023/10/11 05:59:47;;;;;;;0.00;0.00;;;15.70;85.10;;;;;;4891035;29;20492;-78
2023/10/11 06:02:13;;;;;;;0.08;0.08;;;15.70;85.00;;;;;;4901934;29;20036;-77
2023/10/11 06:04:42;;;;;;;0.10;0.10;;;15.60;84.90;;;;;;4901840;29;20104;-77
2023/10/11 06:07:12;;;;;;;0.10;0.10;;;15.60;84.80;;;;;;4901877;29;20029;-77
2023/10/11 06:09:43;;;;;;;0.00;0.00;;;15.60;85.00;;;;;;4902095;29;20044;-77
2023/10/11 06:12:22;;;;;;;0.00;0.00;;;15.70;85.00;;;;;;4902217;29;20491;-77
2023/10/11 06:14:50;;;;;;;0.10;0.10;;;15.60;85.10;;;;;;4901832;29;20025;-77
2023/10/11 06:17:21;;;;;;;0.00;0.00;;;15.50;85.10;;;;;;4885026;29;20037;-79
2023/10/11 06:19:53;;;;;;;0.10;0.10;;;15.50;85.20;;;;;;4885235;29;20033;-77
2023/10/11 06:22:21;;;;;;;0.10;0.10;;;15.60;84.90;;;;;;4884708;29;20028;-76
2023/10/11 06:24:47;;;;;;;0.10;0.10;;;15.60;84.90;;;;;;4901765;29;20084;-77
2023/10/11 06:29:46;;;;;;;0.13;0.10;;;15.60;84.70;;;;;;4901851;29;20095;-77
2023/10/11 06:32:12;;;;;;;0.03;0.03;;;15.60;84.60;;;;;;4901730;29;20048;-77
2023/10/11 06:34:45;;;;;;;0.00;0.00;;;15.60;84.40;;;;;;4901642;29;20021;-78
2023/10/11 06:37:16;;;;;;;0.00;0.00;;;15.60;84.60;;;;;;4901699;29;20412;-76
2023/10/11 06:42:13;;;;;;;0.00;0.00;;;15.60;84.40;;;;;;4901948;29;20557;-78
2023/10/11 06:44:54;;;;;;;0.08;0.08;;;15.60;84.40;;;;;;4901720;29;20056;-79
2023/10/11 06:47:21;;;;;;;0.00;0.00;;;15.60;84.20;;;;;;4884403;29;20032;-80
2023/10/11 06:49:53;;;;;;;0.00;0.00;;;15.60;84.10;;;;;;4901936;29;20035;-79
2023/10/11 06:52:33;;;;;;;0.00;0.00;;;15.50;84.00;;;;;;4884666;29;20052;-80
2023/10/11 06:55:13;;;;;;;0.00;0.00;;;15.50;84.50;;;;;;4901377;29;20039;-78
2023/10/11 06:57:41;;;;;;;0.00;0.00;;;15.50;84.40;;;;;;4902778;29;20025;-80
2023/10/11 07:03:09;;;;;;;0.00;0.00;;;15.50;84.40;;;;;;4904709;29;20084;-79
2023/10/11 07:05:46;;;;;;;0.00;0.00;;;15.50;84.50;;;;;;4888184;29;20629;-80
2023/10/11 07:08:20;;;;;;;0.00;0.00;;;15.60;84.40;;;;;;4888070;29;20028;-80
2023/10/11 07:13:30;;;;;;;0.00;0.00;;;15.60;84.10;;;;;;4904870;29;20032;-80
2023/10/11 07:16:07;;;;;;;0.00;0.00;;;15.60;83.80;;;;;;4887827;29;20024;-78
2023/10/11 07:18:39;;;;;;;0.00;0.00;;;15.50;83.70;;;;;;4887671;29;20118;-79
2023/10/11 07:21:08;;;;;;;0.00;0.00;;;15.60;83.70;;;;;;4887775;29;20106;-79
2023/10/11 07:23:35;;;;;;;0.00;0.00;;;15.50;84.20;;;;;;4903883;29;20112;-80
2023/10/11 07:28:51;;;;;;;0.00;0.00;;;15.50;83.80;;;;;;4904531;29;20044;-80
2023/10/11 07:31:18;;;;;;;0.00;0.00;;;15.50;83.90;;;;;;4904117;29;20037;-80
2023/10/11 07:33:55;;;;;;;0.00;0.00;;;15.50;84.00;;;;;;4887346;29;20040;-80
2023/10/11 07:36:22;;;;;;;0.00;0.00;;;15.60;84.00;;;;;;4904675;29;20048;-82
2023/10/11 07:38:54;;;;;;;0.05;0.05;;;15.60;83.50;;;;;;4887415;29;20029;-83
2023/10/11 07:41:21;;;;;;;0.10;0.10;;;15.60;84.00;;;;;;4887295;29;20032;-84
2023/10/11 07:43:47;;;;;;;0.10;0.10;;;15.60;83.50;;;;;;4887420;29;20047;-80
2023/10/11 07:46:14;;;;;;;0.10;0.10;;;15.60;83.70;;;;;;4904056;29;20033;-83
2023/10/11 07:48:40;;;;;;;0.10;0.10;;;15.50;83.70;;;;;;4891351;29;20029;-84
2023/10/11 07:51:12;;;;;;;0.10;0.10;;;15.50;84.10;;;;;;4885263;29;20399;-85
2023/10/11 07:53:43;;;;;;;0.00;0.00;;;15.60;84.30;;;;;;4885543;29;20036;-81
2023/10/11 07:56:09;;;;;;;0.10;0.10;;;15.70;83.80;;;;;;4885306;29;20021;-83
2023/10/11 07:58:45;;;;;;;0.00;0.00;;;15.70;83.80;;;;;;4885517;29;20021;-85
2023/10/11 08:01:30;;;;;;;0.10;0.10;;;15.80;83.70;;;;;;4872773;29;20029;-85
2023/10/11 08:03:58;;;;;;;0.00;0.00;;;15.80;83.20;;;;;;4887497;29;20029;-81
2023/10/11 08:06:24;;;;;;;0.00;0.00;;;15.80;83.60;;;;;;4903570;29;20369;-84
2023/10/11 08:09:00;;;;;;;0.00;0.00;;;15.60;83.60;;;;;;4903502;29;20403;-82
2023/10/11 08:11:36;;;;;;;0.00;0.00;;;15.70;83.60;;;;;;4903759;29;20111;-82
2023/10/11 08:14:07;;;;;;;0.00;0.00;;;15.80;83.50;;;;;;4887336;29;20029;-83
2023/10/11 08:16:34;;;;;;;0.00;0.00;;;15.80;83.20;;;;;;4887053;29;20462;-82
2023/10/11 08:19:00;;;;;;;0.00;0.00;;;15.80;83.40;;;;;;4903901;29;20029;-82
2023/10/11 08:21:25;;;;;;;0.10;0.10;;;15.80;83.10;;;;;;4903743;29;20036;-83
2023/10/11 08:23:51;;;;;;;0.05;0.05;;;15.90;83.00;;;;;;4887003;29;20191;-83
2023/10/11 08:26:19;;;;;;;0.10;0.10;;;15.90;82.90;;;;;;4903786;29;20032;-83
2023/10/11 08:28:48;;;;;;;0.00;0.00;;;15.90;83.00;;;;;;4886561;29;20119;-82
2023/10/11 08:33:58;;;;;;;0.00;0.00;;;15.90;83.20;;;;;;4903619;29;20033;-82
2023/10/11 08:36:27;;;;;;;0.00;0.00;;;16.00;83.20;;;;;;4903615;29;20056;-82
2023/10/11 08:38:55;;;;;;;0.00;0.00;;;16.00;83.20;;;;;;4886860;29;20020;-82
2023/10/11 08:41:22;;;;;;;0.10;0.10;;;16.00;82.70;;;;;;4886406;29;20485;-83
2023/10/11 08:43:49;;;;;;;0.00;0.00;;;16.10;82.60;;;;;;4903468;29;20481;-82
2023/10/11 08:46:18;;;;;;;0.00;0.00;;;15.90;82.50;;;;;;4885015;29;20037;-81
2023/10/11 08:48:49;;;;;;;0.10;0.10;;;15.90;82.90;;;;;;4903110;29;20021;-82
2023/10/11 08:51:22;;;;;;;0.10;0.10;;;16.00;83.10;;;;;;4902793;29;20033;-82
2023/10/11 08:53:54;;;;;;;0.10;0.10;;;16.00;83.00;;;;;;4903118;29;20080;-82
2023/10/11 08:56:23;;;;;;;0.10;0.10;;;16.10;82.90;;;;;;4902836;29;20061;-82
2023/10/11 08:58:51;;;;;;;0.10;0.10;;;16.20;82.30;;;;;;4902701;29;20269;-83
2023/10/11 09:01:17;;;;;;;0.10;0.10;;;16.30;82.20;;;;;;4902864;29;20021;-82
2023/10/11 09:03:43;;;;;;;0.10;0.10;;;16.30;82.10;;;;;;4902894;29;20036;-82
2023/10/11 09:06:22;;;;;;;0.10;0.10;;;16.40;82.10;;;;;;4902596;29;20025;-82
2023/10/11 09:08:48;;;;;;;0.10;0.10;;;16.50;81.50;;;;;;4902581;29;20043;-82
2023/10/11 09:11:29;;;;;;;0.10;0.10;;;16.50;81.70;;;;;;4902901;29;20055;-82
2023/10/11 09:14:23;;;;;;;0.10;0.10;;;16.60;81.80;;;;;;4902746;29;20088;-82
2023/10/11 09:16:57;;;;;;;0.10;0.10;;;16.70;81.60;;;;;;4902369;29;20025;-80
2023/10/11 09:19:24;;;;;;;0.10;0.10;;;16.80;81.50;;;;;;4902338;29;20072;-79
2023/10/11 09:22:06;;;;;;;0.00;0.00;;;16.80;81.00;;;;;;4902191;29;20025;-79
2023/10/11 09:24:41;;;;;;;0.10;0.10;;;17.00;80.80;;;;;;4885970;29;20032;-79
2023/10/11 09:29:38;;;;;;;0.10;0.10;;;17.00;80.50;;;;;;4902416;29;20538;-78
2023/10/11 09:32:05;;;;;;;0.00;0.00;;;17.00;80.30;;;;;;4902027;29;20073;-77
2023/10/11 09:34:31;;;;;;;0.10;0.10;;;17.00;80.20;;;;;;4885764;29;20063;-77
2023/10/11 09:36:58;;;;;;;0.00;0.00;;;17.00;80.10;;;;;;4885606;29;20548;-77
2023/10/11 09:39:28;;;;;;;0.10;0.10;;;17.10;80.50;;;;;;4885513;29;20032;-77
2023/10/11 09:42:02;;;;;;;0.10;0.10;;;17.20;80.50;;;;;;4902209;29;20036;-78
2023/10/11 09:44:35;;;;;;;0.00;0.00;;;17.30;80.30;;;;;;4902285;29;20032;-78
2023/10/11 09:47:04;;;;;;;0.10;0.10;;;17.30;80.30;;;;;;4901978;29;20477;-79
2023/10/11 09:49:34;;;;;;;0.10;0.10;;;17.30;79.80;;;;;;4902175;29;20044;-79
2023/10/11 09:52:07;;;;;;;0.10;0.10;;;17.40;79.70;;;;;;4884868;29;20027;-79
2023/10/11 09:54:37;;;;;;;0.10;0.10;;;17.60;79.70;;;;;;4885161;29;20073;-82
2023/10/11 09:57:21;;;;;;;0.10;0.10;;;17.50;79.20;;;;;;4866573;29;20451;-79
2023/10/11 10:00:02;;;;;;;0.10;0.10;;;17.50;78.50;;;;;;4883264;29;20033;-79
2023/10/11 10:02:36;;;;;;;0.00;0.00;;;17.70;79.20;;;;;;4894868;29;20025;-80
2023/10/11 10:05:05;;;;;;;0.10;0.10;;;17.80;78.60;;;;;;4901717;29;20486;-79
2023/10/11 10:07:42;;;;;;;0.10;0.10;;;17.80;78.70;;;;;;4901838;29;20430;-80
2023/10/11 10:10:11;;;;;;;0.10;0.10;;;17.90;78.70;;;;;;4887744;29;20036;-79
2023/10/11 10:12:43;;;;;;;0.10;0.10;;;18.00;78.40;;;;;;4883207;29;20029;-80
2023/10/11 10:15:14;;;;;;;0.10;0.10;;;18.10;78.00;;;;;;4883021;29;20029;-80
2023/10/11 10:18:00;;;;;;;0.00;0.00;;;18.20;78.10;;;;;;4888319;29;20029;-80
2023/10/11 10:20:38;;;;;;;0.10;0.10;;;18.30;78.10;;;;;;4902299;29;20029;-80
2023/10/11 10:23:16;;;;;;;0.03;0.03;;;18.30;77.20;;;;;;4901589;29;20040;-80
2023/10/11 10:25:48;;;;;;;0.10;0.10;;;18.30;77.30;;;;;;4901547;29;20044;-79
2023/10/11 10:28:32;;;;;;;0.00;0.00;;;18.50;77.50;;;;;;4901773;29;20036;-79
2023/10/11 10:31:12;;;;;;;0.00;0.00;;;18.50;77.50;;;;;;4888265;29;20056;-80
2023/10/11 10:33:39;;;;;;;0.00;0.00;;;18.50;77.00;;;;;;4904880;29;20104;-79
2023/10/11 10:36:28;;;;;;;0.10;0.10;;;18.60;76.90;;;;;;4904293;29;20028;-79
2023/10/11 10:39:00;;;;;;;0.00;0.00;;;18.70;77.10;;;;;;4905181;29;20119;-80
2023/10/11 10:41:26;;;;;;;0.00;0.00;;;18.70;76.90;;;;;;4905049;29;20089;-79
2023/10/11 10:44:10;;;;;;;0.10;0.10;;;18.70;76.70;;;;;;4905489;29;20032;-79
2023/10/11 10:46:49;;;;;;;0.10;0.10;;;18.70;76.60;;;;;;4905015;29;20032;-79
2023/10/11 10:49:17;;;;;;;0.10;0.10;;;18.80;76.50;;;;;;4904052;29;20033;-80
2023/10/11 10:51:47;;;;;;;0.00;0.00;;;18.90;76.10;;;;;;4904422;29;20024;-80
2023/10/11 10:54:22;;;;;;;0.10;0.10;;;19.10;76.20;;;;;;4905216;29;20031;-80
2023/10/11 10:56:48;;;;;;;0.00;0.00;;;19.20;76.20;;;;;;4904077;29;20024;-80
2023/10/11 10:59:20;;;;;;;0.10;0.10;;;19.20;76.00;;;;;;4904000;29;20024;-81
2023/10/11 11:01:47;;;;;;;0.10;0.10;;;19.20;75.70;;;;;;4904786;29;20025;-80
2023/10/11 11:04:15;;;;;;;0.10;0.10;;;19.30;76.00;;;;;;4905136;29;20061;-80
2023/10/11 11:06:46;;;;;;;0.10;0.10;;;19.30;75.90;;;;;;4904892;29;20116;-80
2023/10/11 11:09:18;;;;;;;0.10;0.10;;;19.50;75.60;;;;;;4903780;29;20088;-80
2023/10/11 11:11:46;;;;;;;0.00;0.00;;;19.60;74.90;;;;;;4904697;29;20048;-80
2023/10/11 11:14:19;;;;;;;0.00;0.00;;;19.80;74.40;;;;;;4903822;29;20481;-80
2023/10/11 11:16:59;;;;;;;0.00;0.00;;;19.90;74.50;;;;;;4904729;29;20028;-80
2023/10/11 11:19:34;;;;;;;0.00;0.00;;;20.00;74.20;;;;;;4904927;29;20036;-80
2023/10/11 11:22:15;;;;;;;0.00;0.00;;;20.00;74.50;;;;;;4903343;29;20025;-80
2023/10/11 11:24:44;;;;;;;0.00;0.00;;;20.10;74.10;;;;;;4904610;29;20497;-80
2023/10/11 11:27:25;;;;;;;0.00;0.00;;;20.20;73.80;;;;;;4903191;29;20025;-80
2023/10/11 11:29:52;;;;;;;0.00;0.00;;;20.20;73.10;;;;;;4903071;29;20036;-80
2023/10/11 11:32:19;;;;;;;0.10;0.10;;;20.30;73.50;;;;;;4904209;29;20044;-80
2023/10/11 11:35:04;;;;;;;0.10;0.10;;;20.30;72.80;;;;;;4904400;29;20481;-80
2023/10/11 11:37:31;;;;;;;0.05;0.05;;;20.40;71.70;;;;;;4887667;29;20094;-80
2023/10/11 11:42:48;;;;;;;0.10;0.10;;;20.50;71.10;;;;;;4904146;29;20060;-81
2023/10/11 11:45:15;;;;;;;0.10;0.10;;;20.70;70.40;;;;;;4904250;29;20037;-80
2023/10/11 11:47:56;;;;;;;0.03;0.03;;;20.90;69.10;;;;;;4900851;29;20110;-80
2023/10/11 11:50:26;;;;;;;0.00;0.00;;;21.20;67.20;;;;;;4887079;29;20032;-80
2023/10/11 11:52:52;;;;;;;0.00;0.00;;;21.40;65.30;;;;;;4887191;29;20025;-80
2023/10/11 11:55:22;;;;;;;0.15;0.05;;;21.40;65.70;;;;;;4904155;29;20043;-80
2023/10/11 11:57:48;;;;;;;0.00;0.00;;;21.50;66.90;;;;;;4904028;29;20055;-80
2023/10/11 12:02:52;;;;;;;0.00;0.00;;;21.80;63.40;;;;;;4895364;29;20035;-78
2023/10/11 12:05:18;;;;;;;0.00;0.00;;;21.80;63.10;;;;;;4868328;29;20026;-81
2023/10/11 12:07:44;;;;;;;0.00;0.00;;;21.80;62.70;;;;;;4879979;29;20025;-80
2023/10/11 12:10:25;;;;;;;0.00;0.00;;;21.80;62.40;;;;;;4884540;29;20077;-82
2023/10/11 12:13:05;;;;;;;0.00;0.00;;;21.90;62.80;;;;;;4896150;29;20020;-77
2023/10/11 12:15:31;;;;;;;0.00;0.00;;;22.00;60.90;;;;;;4900807;29;20031;-78
2023/10/11 12:17:58;;;;;;;0.10;0.00;;;22.10;59.60;;;;;;4905990;29;20016;-78
2023/10/11 12:20:33;;;;;;;0.00;0.00;;;22.30;60.20;;;;;;4891016;29;20036;-78
2023/10/11 12:23:07;;;;;;;0.00;0.00;;;22.30;60.90;;;;;;4888335;29;20021;-77
2023/10/11 12:25:34;;;;;;;0.00;0.00;;;22.40;60.10;;;;;;4890060;29;20029;-77
2023/10/11 12:28:03;;;;;;;0.10;0.10;;;22.50;61.00;;;;;;4905381;29;20027;-77
2023/10/11 12:30:33;;;;;;;0.00;0.00;;;22.50;61.60;;;;;;4905637;29;20055;-77
2023/10/11 12:33:06;;;;;;;0.00;0.00;;;22.50;59.00;;;;;;4903293;29;20025;-77
2023/10/11 12:35:41;;;;;;;0.10;0.00;;;22.40;58.70;;;;;;4889459;29;20026;-77
2023/10/11 12:38:12;;;;;;;0.00;0.00;;;22.30;59.00;;;;;;4901354;29;20032;-77
2023/10/11 12:40:39;;;;;;;0.00;0.00;;;22.30;58.50;;;;;;4901653;29;20032;-77
2023/10/11 12:43:07;;;;;;;0.00;0.00;;;22.40;57.10;;;;;;4901344;29;20032;-77
2023/10/11 12:45:34;;;;;;;0.00;0.00;;;22.40;57.00;;;;;;4885527;29;20039;-77
2023/10/11 12:48:06;;;;;;;0.00;0.00;;;22.40;57.30;;;;;;4885759;29;20112;-76
2023/10/11 12:50:36;;;;;;;0.05;0.05;;;22.30;55.70;;;;;;4885153;29;20397;-76
2023/10/11 12:53:10;;;;;;;0.00;0.00;;;22.30;55.90;;;;;;4902519;29;20013;-75
2023/10/11 12:55:41;;;;;;;0.00;0.00;;;22.30;56.10;;;;;;4901159;29;20148;-75
2023/10/11 12:58:14;;;;;;;0.00;0.00;;;22.30;56.70;;;;;;4900419;29;20017;-76
2023/10/11 13:01:05;;;;;;;;;;;22.30;57.00;;;;;;4902004;29;20099;-76
2023/10/11 13:03:37;;;;;;;0.10;0.10;;;22.40;55.70;;;;;;4883432;29;19974;-76
2023/10/11 13:06:10;;;;;;;0.10;0.10;;;22.60;54.10;;;;;;4901786;29;20373;-77
2023/10/11 13:08:38;;;;;;;0.00;0.00;;;22.70;53.00;;;;;;4902517;29;20035;-76
2023/10/11 13:11:11;;;;;;;0.00;0.00;;;22.80;53.60;;;;;;4882179;29;20088;-75
2023/10/11 13:13:37;;;;;;;0.00;0.00;;;22.90;51.80;;;;;;4884547;29;20035;-75
2023/10/11 13:16:06;;;;;;;0.00;0.00;;;22.90;50.30;;;;;;4901587;29;20020;-76
2023/10/11 13:18:40;;;;;;;0.00;0.00;;;23.00;49.80;;;;;;4901480;29;20044;-76
2023/10/11 13:21:16;;;;;;;0.00;0.00;;;23.10;48.80;;;;;;4898567;29;20423;-76
2023/10/11 13:23:45;;;;;;;0.00;0.00;;;23.10;49.10;;;;;;4901396;29;20020;-76
2023/10/11 13:26:18;;;;;;;0.00;0.00;;;23.30;49.60;;;;;;4901020;29;20115;-77
2023/10/11 13:28:48;;;;;;;0.00;0.00;;;23.30;49.60;;;;;;4885335;29;20032;-77
2023/10/11 13:31:17;;;;;;;0.00;0.00;;;23.40;50.90;;;;;;4901471;29;20041;-75
2023/10/11 13:33:45;;;;;;;0.00;0.00;;;23.40;48.80;;;;;;4884697;29;20028;-76
2023/10/11 13:36:12;;;;;;;0.10;0.03;;;23.50;49.80;;;;;;4885285;29;20025;-76
2023/10/11 13:38:45;;;;;;;0.00;0.00;;;23.50;49.60;;;;;;4884216;29;20544;-75
2023/10/11 13:41:12;;;;;;;0.00;0.00;;;23.50;49.20;;;;;;4883023;29;20028;-75
2023/10/11 13:43:38;;;;;;;0.00;0.00;;;23.40;49.40;;;;;;4900612;29;20043;-76
2023/10/11 13:46:07;;;;;;;0.10;0.10;;;23.30;48.70;;;;;;4901078;29;20025;-76
2023/10/11 13:48:37;;;;;;;0.10;0.00;;;23.30;48.90;;;;;;4900509;29;20037;-77
2023/10/11 13:51:06;;;;;;;0.17;0.10;;;23.30;49.00;;;;;;4882495;29;20049;-76
2023/10/11 13:53:32;;;;;;;0.10;0.10;;;23.50;48.70;;;;;;4884621;29;20032;-76
2023/10/11 13:56:10;;;;;;;0.00;0.00;;;23.50;48.60;;;;;;4899983;29;20013;-75
2023/10/11 13:58:36;;;;;;;0.00;0.00;;;23.50;47.70;;;;;;4899700;29;20056;-80
2023/10/11 14:01:13;;;;;;;0.00;0.00;;;23.60;48.10;;;;;;4882145;29;20040;-77
2023/10/11 14:03:46;;;;;;;0.00;0.00;;;23.60;47.80;;;;;;4883972;29;20036;-78
2023/10/11 14:06:30;;;;;;;;;;;23.60;48.60;;;;;;4883872;29;20064;-77
2023/10/11 14:08:56;;;;;;;0.00;0.00;;;23.60;48.80;;;;;;4904595;29;19912;-78
2023/10/11 14:11:23;;;;;;;0.00;0.00;;;23.60;49.40;;;;;;4905214;29;20454;-76
2023/10/11 14:13:52;;;;;;;0.00;0.00;;;23.70;48.60;;;;;;4904955;29;20048;-77
2023/10/11 14:16:29;;;;;;;0.00;0.00;;;23.60;49.10;;;;;;4902952;29;20029;-77
2023/10/11 14:18:56;;;;;;;0.05;0.05;;;23.70;49.70;;;;;;4904518;29;20024;-77
2023/10/11 14:21:24;;;;;;;0.00;0.00;;;23.80;49.00;;;;;;4903874;29;20035;-78
2023/10/11 14:23:51;;;;;;;0.00;0.00;;;23.80;49.40;;;;;;4904965;29;20021;-78
2023/10/11 14:26:17;;;;;;;0.08;0.08;;;23.80;49.20;;;;;;4904813;29;20099;-76
2023/10/11 14:28:43;;;;;;;0.00;0.00;;;23.90;46.90;;;;;;4900878;29;20028;-76
2023/10/11 14:31:22;;;;;;;0.00;0.00;;;23.90;46.70;;;;;;4903377;29;20060;-76
2023/10/11 14:33:49;;;;;;;0.00;0.00;;;24.00;46.40;;;;;;4903639;29;20073;-76
2023/10/11 14:36:20;;;;;;;0.00;0.00;;;24.00;46.50;;;;;;4903658;29;20112;-76
2023/10/11 14:38:46;;;;;;;0.00;0.00;;;24.10;46.00;;;;;;4902048;29;20759;-77
2023/10/11 14:41:14;;;;;;;0.00;0.00;;;24.00;45.00;;;;;;4902800;29;20032;-75
2023/10/11 14:43:40;;;;;;;0.00;0.00;;;24.00;43.90;;;;;;4902485;29;20039;-77
2023/10/11 14:46:06;;;;;;;0.00;0.00;;;24.00;45.20;;;;;;4903301;29;20044;-77
2023/10/11 14:48:34;;;;;;;0.00;0.00;;;24.00;46.40;;;;;;4903276;29;20420;-78
2023/10/11 14:51:00;;;;;;;0.00;0.00;;;24.00;45.60;;;;;;4886694;29;20028;-78
2023/10/11 14:53:26;;;;;;;0.10;0.00;;;24.00;45.50;;;;;;4885026;29;20028;-78
2023/10/11 14:55:54;;;;;;;0.00;0.00;;;23.90;45.10;;;;;;4903370;29;20035;-78
2023/10/11 14:58:20;;;;;;;0.08;0.08;;;23.90;44.50;;;;;;4901980;29;20017;-76
2023/10/11 15:00:47;;;;;;;0.00;0.00;;;23.90;44.40;;;;;;4901787;29;20092;-77
2023/10/11 15:03:13;;;;;;;0.00;0.00;;;23.80;45.30;;;;;;4903313;29;20060;-77
2023/10/11 15:05:39;;;;;;;0.00;0.00;;;23.90;46.00;;;;;;4886691;29;20060;-77
2023/10/11 15:08:05;;;;;;;0.00;0.00;;;23.90;44.50;;;;;;4903251;29;20064;-78
2023/10/11 15:10:31;;;;;;;0.00;0.00;;;23.90;44.30;;;;;;4903170;29;20025;-77
2023/10/11 15:12:56;;;;;;;0.17;0.10;;;23.90;43.80;;;;;;4903141;29;20060;-76
2023/10/11 15:15:26;;;;;;;0.00;0.00;;;23.90;45.20;;;;;;4883184;29;20029;-77
2023/10/11 15:17:54;;;;;;;0.00;0.00;;;23.80;45.60;;;;;;4882358;29;21561;-77
2023/10/11 15:20:20;;;;;;;0.28;0.10;;;23.80;45.30;;;;;;4884070;29;20109;-76
2023/10/11 15:22:51;;;;;;;0.00;0.00;;;23.80;45.10;;;;;;4886242;29;20932;-76
2023/10/11 15:25:18;;;;;;;0.10;0.10;;;23.80;44.60;;;;;;4899921;29;21153;-77
2023/10/11 15:27:43;;;;;;;0.00;0.00;;;23.70;44.10;;;;;;4903205;29;20020;-77
2023/10/11 15:30:10;;;;;;;0.00;0.00;;;23.60;43.30;;;;;;4887293;29;20044;-77
2023/10/11 15:32:39;;;;;;;0.00;0.00;;;23.50;43.90;;;;;;4900951;29;20024;-77
2023/10/11 15:35:07;;;;;;;0.00;0.00;;;23.50;44.30;;;;;;4904069;29;20033;-77
2023/10/11 15:37:33;;;;;;;0.00;0.00;;;23.50;44.10;;;;;;4902125;29;20013;-77
2023/10/11 15:39:59;;;;;;;0.00;0.00;;;23.50;44.70;;;;;;4901092;29;20021;-77
2023/10/11 15:42:27;;;;;;;0.00;0.00;;;23.50;45.30;;;;;;4885363;29;20032;-77
2023/10/11 15:44:53;;;;;;;0.00;0.00;;;23.50;45.50;;;;;;4902926;29;20017;-77
2023/10/11 15:47:19;;;;;;;0.00;0.00;;;23.50;45.60;;;;;;4903742;29;20067;-77
2023/10/11 15:49:45;;;;;;;0.00;0.00;;;23.50;46.30;;;;;;4904155;29;20099;-78
2023/10/11 15:52:14;;;;;;;0.00;0.00;;;23.40;46.50;;;;;;4901892;29;20622;-76
2023/10/11 15:54:39;;;;;;;0.00;0.00;;;23.40;46.30;;;;;;4885003;29;20020;-78
2023/10/11 15:57:07;;;;;;;0.00;0.00;;;23.30;46.40;;;;;;4903764;29;20577;-77
2023/10/11 15:59:33;;;;;;;0.00;0.00;;;23.30;45.70;;;;;;4901387;29;20044;-76
2023/10/11 16:02:05;;;;;;;0.00;0.00;;;23.30;46.50;;;;;;4883425;29;20397;-78
2023/10/11 16:04:32;;;;;;;0.00;0.00;;;23.30;46.90;;;;;;4895525;29;20029;-79
2023/10/11 16:06:57;;;;;;;0.00;0.00;;;23.30;47.20;;;;;;4886110;29;20028;-77
2023/10/11 16:09:23;;;;;;;0.00;0.00;;;23.30;47.30;;;;;;4900362;29;20104;-76
2023/10/11 16:11:49;;;;;;;0.00;0.00;;;23.30;47.80;;;;;;4886725;29;20021;-77
2023/10/11 16:14:15;;;;;;;0.00;0.00;;;23.20;47.90;;;;;;4900439;29;20106;-81
2023/10/11 16:16:41;;;;;;;0.00;0.00;;;23.10;48.00;;;;;;4894443;29;20028;-76
2023/10/11 16:19:13;;;;;;;0.00;0.00;;;23.00;48.20;;;;;;4902438;29;20429;-76
2023/10/11 16:21:39;;;;;;;0.00;0.00;;;22.90;48.50;;;;;;4900596;29;20024;-76
2023/10/11 16:24:08;;;;;;;0.00;0.00;;;22.80;49.10;;;;;;4894354;29;20051;-77
2023/10/11 16:26:35;;;;;;;0.00;0.00;;;22.70;49.70;;;;;;4890516;29;20122;-76
2023/10/11 16:29:01;;;;;;;0.00;0.00;;;22.60;49.70;;;;;;4891936;29;20063;-76
2023/10/11 16:31:37;;;;;;;0.00;0.00;;;22.60;50.10;;;;;;4889865;29;20497;-76
2023/10/11 16:34:03;;;;;;;0.00;0.00;;;22.50;50.40;;;;;;4899863;29;20183;-76
2023/10/11 16:36:28;;;;;;;0.00;0.00;;;22.40;50.60;;;;;;4901075;29;20068;-74
2023/10/11 16:38:56;;;;;;;0.00;0.00;;;22.40;50.80;;;;;;4900570;29;20032;-76
2023/10/11 16:41:22;;;;;;;0.00;0.00;;;22.30;51.70;;;;;;4892922;29;20032;-75
2023/10/11 16:43:50;;;;;;;0.00;0.00;;;22.30;51.80;;;;;;4902447;29;20033;-75
2023/10/11 16:46:20;;;;;;;0.00;0.00;;;22.30;52.00;;;;;;4900598;29;20025;-74
2023/10/11 16:48:47;;;;;;;0.00;0.00;;;22.20;52.50;;;;;;4900541;29;20036;-74
2023/10/11 16:51:13;;;;;;;0.00;0.00;;;22.10;52.30;;;;;;4902687;29;20416;-75
2023/10/11 16:53:39;;;;;;;0.00;0.00;;;22.10;52.80;;;;;;4903235;29;20020;-74
2023/10/11 16:56:15;;;;;;;0.00;0.00;;;22.10;52.90;;;;;;4900053;29;20056;-74
2023/10/11 16:58:44;;;;;;;0.00;0.00;;;22.00;53.40;;;;;;4900807;29;20235;-74
2023/10/11 17:01:14;;;;;;;0.00;0.00;;;22.00;53.50;;;;;;4901354;29;20402;-74
2023/10/11 17:03:41;;;;;;;0.10;0.00;;;22.00;54.10;;;;;;4900793;29;20020;-74
2023/10/11 17:06:07;;;;;;;0.00;0.00;;;21.90;54.50;;;;;;4899455;29;20115;-75
2023/10/11 17:08:35;;;;;;;0.00;0.00;;;21.90;54.80;;;;;;4900374;29;20039;-74
2023/10/11 17:11:01;;;;;;;0.00;0.00;;;21.80;54.80;;;;;;4900152;29;20035;-74
2023/10/11 17:13:27;;;;;;;0.00;0.00;;;21.80;54.70;;;;;;4900612;29;20127;-74
2023/10/11 17:15:56;;;;;;;0.00;0.00;;;21.70;54.80;;;;;;4899846;29;20044;-74
2023/10/11 17:18:24;;;;;;;0.00;0.00;;;21.70;55.10;;;;;;4900584;29;20024;-74
2023/10/11 17:20:50;;;;;;;0.00;0.00;;;21.70;55.10;;;;;;4900736;29;20465;-74
2023/10/11 17:23:16;;;;;;;0.00;0.00;;;21.60;55.30;;;;;;4900654;29;20112;-74
2023/10/11 17:25:41;;;;;;;0.00;0.00;;;21.50;55.40;;;;;;4900214;29;20052;-73
2023/10/11 17:28:07;;;;;;;0.00;0.00;;;21.50;55.70;;;;;;4900460;29;20033;-74
2023/10/11 17:30:33;;;;;;;0.00;0.00;;;21.40;56.00;;;;;;4899036;29;20047;-73
2023/10/11 17:33:01;;;;;;;0.00;0.00;;;21.40;56.20;;;;;;4901062;29;20397;-73
2023/10/11 17:35:27;;;;;;;0.00;0.00;;;21.30;56.50;;;;;;4899612;29;20505;-73
2023/10/11 17:37:54;;;;;;;0.00;0.00;;;21.30;56.30;;;;;;4900447;29;20106;-73
2023/10/11 17:40:23;;;;;;;0.00;0.00;;;21.30;56.60;;;;;;4899262;29;20477;-74
2023/10/11 17:42:50;;;;;;;0.00;0.00;;;21.20;56.70;;;;;;4897674;29;20043;-74
2023/10/11 17:45:22;;;;;;;0.00;0.00;;;21.20;57.20;;;;;;4899201;29;20497;-73
2023/10/11 17:47:49;;;;;;;0.00;0.00;;;21.10;57.30;;;;;;4899737;29;20084;-74
2023/10/11 17:50:16;;;;;;;0.00;0.00;;;21.10;57.50;;;;;;4895495;29;20505;-74
2023/10/11 17:52:43;;;;;;;0.00;0.00;;;21.10;57.60;;;;;;4901271;29;20028;-74
2023/10/11 17:55:10;;;;;;;0.00;0.00;;;21.10;57.70;;;;;;4901438;29;20020;-73
2023/10/11 17:57:37;;;;;;;0.00;0.00;;;21.00;57.70;;;;;;4899946;29;20119;-73
2023/10/11 18:00:07;;;;;;;0.00;0.00;;;21.00;57.80;;;;;;4899980;29;20034;-73
2023/10/11 18:02:36;;;;;;;0.00;0.00;;;21.10;58.00;;;;;;4899156;29;20120;-73
2023/10/11 18:05:06;;;;;;;0.00;0.00;;;21.00;58.20;;;;;;4898266;29;20043;-80
2023/10/11 18:07:35;;;;;;;0.00;0.00;;;21.00;58.30;;;;;;4900247;29;20441;-74
2023/10/11 18:10:05;;;;;;;0.00;0.00;;;21.00;58.30;;;;;;4900845;29;20111;-76
2023/10/11 18:12:31;;;;;;;0.10;0.03;;;21.00;58.30;;;;;;4897047;29;20060;-76
2023/10/11 18:14:57;;;;;;;0.00;0.00;;;21.00;58.50;;;;;;4900780;29;20044;-77
2023/10/11 18:17:23;;;;;;;0.00;0.00;;;20.90;58.30;;;;;;4898215;29;20400;-80
2023/10/11 18:19:53;;;;;;;0.00;0.00;;;20.90;58.60;;;;;;4899730;29;20112;-77